Time;durP1;ratioP1;P1;durP2;ratioP2;P2;SDS_P1;SDS_P2;PMS_P1;PMS_P2;Temp;Humidity;BMP_temperature;BMP_pressure;BME280_temperature;BME280_humidity;BME280_pressure;Samples;Min_cycle;Max_cycle;Signal;HPM_P1;HPM_P2
2023/07/30 00:02:21;;;;;;;12.52;5.13;;;15.50;99.90;;;;;;4998613;28;20076;-72
2023/07/30 00:04:48;;;;;;;13.25;5.43;;;15.50;99.90;;;;;;4985744;28;20046;-72
2023/07/30 00:07:24;;;;;;;11.77;4.97;;;15.50;99.90;;;;;;4998344;28;20053;-72
2023/07/30 00:10:08;;;;;;;9.80;4.15;;;15.40;99.90;;;;;;4982039;28;20046;-72
2023/07/30 00:12:37;;;;;;;9.57;5.03;;;15.40;99.90;;;;;;4998343;28;20128;-73
2023/07/30 00:15:03;;;;;;;10.65;4.88;;;15.40;99.90;;;;;;4998085;28;20042;-73
2023/07/30 00:17:29;;;;;;;8.88;4.35;;;15.40;99.90;;;;;;4981968;28;20121;-74
2023/07/30 00:19:57;;;;;;;9.98;4.93;;;15.40;99.90;;;;;;4997821;28;20549;-72
2023/07/30 00:22:26;;;;;;;10.15;4.90;;;15.30;99.90;;;;;;4982826;28;20065;-72
2023/07/30 00:24:53;;;;;;;12.82;6.38;;;15.30;99.90;;;;;;4981958;28;20054;-73
2023/07/30 00:27:19;;;;;;;13.98;6.55;;;15.30;99.90;;;;;;4998214;28;20046;-73
2023/07/30 00:29:45;;;;;;;12.55;6.20;;;15.30;99.90;;;;;;4965584;28;20065;-73
2023/07/30 00:32:11;;;;;;;15.45;6.38;;;15.30;99.90;;;;;;4981602;28;20045;-72
2023/07/30 00:34:37;;;;;;;15.85;6.00;;;15.30;99.90;;;;;;4981699;28;20417;-74
2023/07/30 00:37:09;;;;;;;13.35;6.00;;;15.20;99.90;;;;;;4997854;28;20042;-73
2023/07/30 00:39:38;;;;;;;13.00;5.55;;;15.20;99.90;;;;;;4981966;28;20486;-73
2023/07/30 00:42:07;;;;;;;12.52;6.35;;;15.20;99.90;;;;;;4982175;28;20129;-71
2023/07/30 00:44:36;;;;;;;14.35;5.57;;;15.20;99.90;;;;;;4981595;28;20069;-72
2023/07/30 00:47:03;;;;;;;11.65;5.68;;;15.20;99.90;;;;;;4982106;28;20302;-73
2023/07/30 00:49:37;;;;;;;13.13;6.07;;;15.20;99.90;;;;;;4981660;28;20053;-73
2023/07/30 00:52:04;;;;;;;14.93;5.80;;;15.10;99.90;;;;;;4966478;28;20053;-73
2023/07/30 00:54:30;;;;;;;13.85;6.07;;;15.10;99.90;;;;;;5015014;28;20041;-73
2023/07/30 00:56:56;;;;;;;13.40;5.30;;;15.10;99.90;;;;;;5015224;28;20042;-65
2023/07/30 00:59:22;;;;;;;9.60;5.07;;;15.10;99.90;;;;;;4981014;28;20414;-64
2023/07/30 01:01:48;;;;;;;12.77;5.38;;;15.10;99.90;;;;;;4980989;28;20084;-65
2023/07/30 01:04:17;;;;;;;14.65;6.35;;;15.10;99.90;;;;;;4965153;28;20044;-65
2023/07/30 01:06:43;;;;;;;11.10;5.25;;;15.00;99.90;;;;;;4965436;28;20549;-64
2023/07/30 01:09:10;;;;;;;10.30;4.75;;;15.00;99.90;;;;;;4997153;28;20050;-64
2023/07/30 01:11:37;;;;;;;12.65;5.63;;;15.00;99.90;;;;;;4980808;28;20046;-64
2023/07/30 01:14:05;;;;;;;14.48;5.80;;;15.00;99.90;;;;;;4996830;28;20128;-65
2023/07/30 01:16:37;;;;;;;12.77;5.38;;;15.00;99.90;;;;;;4996794;28;20042;-64
2023/07/30 01:19:04;;;;;;;13.95;6.22;;;14.90;99.90;;;;;;4996835;28;20038;-63
2023/07/30 01:21:34;;;;;;;15.73;6.45;;;14.90;99.90;;;;;;4997041;28;20088;-64
2023/07/30 01:24:00;;;;;;;16.55;5.55;;;14.90;99.90;;;;;;4995148;28;20045;-63
2023/07/30 01:26:51;;;;;;;14.23;5.35;;;14.80;99.90;;;;;;4996798;28;20068;-63
2023/07/30 01:29:24;;;;;;;16.45;6.15;;;14.80;99.90;;;;;;4996484;28;20050;-64
2023/07/30 01:31:57;;;;;;;14.63;5.32;;;14.80;99.90;;;;;;4980408;28;20052;-64
2023/07/30 01:34:26;;;;;;;14.80;5.97;;;14.80;99.90;;;;;;4996517;28;20045;-63
2023/07/30 01:36:57;;;;;;;11.93;4.80;;;14.70;99.90;;;;;;4996467;28;20121;-63
2023/07/30 01:39:23;;;;;;;12.73;4.82;;;14.70;99.90;;;;;;4996320;28;20096;-64
2023/07/30 01:41:55;;;;;;;12.52;5.68;;;14.70;99.90;;;;;;4980333;28;20401;-64
2023/07/30 01:44:21;;;;;;;;;;;14.60;99.90;;;;;;4980865;28;20474;-63
2023/07/30 01:46:55;;;;;;;14.85;5.15;;;14.70;99.90;;;;;;4996296;28;19921;-65
2023/07/30 01:49:21;;;;;;;13.30;5.53;;;14.60;99.90;;;;;;4996274;28;20463;-64
2023/07/30 01:51:48;;;;;;;14.48;5.63;;;14.60;99.90;;;;;;4996492;28;20054;-63
2023/07/30 01:54:14;;;;;;;16.27;5.72;;;14.60;99.90;;;;;;4980168;28;20046;-64
2023/07/30 01:56:43;;;;;;;11.93;5.10;;;14.60;99.90;;;;;;4980427;28;20131;-64
2023/07/30 01:59:12;;;;;;;14.73;5.18;;;14.50;99.90;;;;;;4995036;28;20052;-65
2023/07/30 02:01:47;;;;;;;14.95;4.90;;;14.50;99.90;;;;;;5013367;28;20444;-64
2023/07/30 02:04:19;;;;;;;16.80;5.30;;;14.50;99.90;;;;;;4996286;28;20044;-64
2023/07/30 02:06:51;;;;;;;12.18;5.05;;;14.50;99.90;;;;;;4996400;28;20200;-64
2023/07/30 02:09:17;;;;;;;17.33;5.53;;;14.50;99.90;;;;;;4980798;28;20081;-64
2023/07/30 02:11:42;;;;;;;15.15;5.60;;;14.50;99.90;;;;;;4979847;28;20049;-64
2023/07/30 02:14:10;;;;;;;15.10;4.97;;;14.40;99.90;;;;;;4979872;28;20046;-64
2023/07/30 02:16:36;;;;;;;12.82;4.72;;;14.50;99.90;;;;;;4996093;28;20054;-64
2023/07/30 02:19:04;;;;;;;12.27;4.55;;;14.40;99.90;;;;;;4995765;28;20078;-63
2023/07/30 02:21:38;;;;;;;15.82;5.20;;;14.40;99.90;;;;;;4996216;28;20497;-63
2023/07/30 02:24:09;;;;;;;16.17;4.70;;;14.40;99.90;;;;;;4964820;28;20065;-64
2023/07/30 02:26:39;;;;;;;13.07;4.30;;;14.40;99.90;;;;;;4965333;28;20037;-63
2023/07/30 02:29:05;;;;;;;12.88;4.60;;;14.40;99.90;;;;;;5013319;28;20133;-64
2023/07/30 02:31:40;;;;;;;16.88;5.00;;;14.40;99.90;;;;;;4995819;28;20042;-65
2023/07/30 02:34:07;;;;;;;13.05;4.40;;;14.40;99.90;;;;;;5013603;28;20461;-64
2023/07/30 02:36:33;;;;;;;16.85;4.60;;;14.40;99.90;;;;;;4995733;28;20049;-64
2023/07/30 02:38:59;;;;;;;15.57;4.65;;;14.40;99.90;;;;;;4979571;28;20042;-64
2023/07/30 02:41:25;;;;;;;14.18;4.50;;;14.30;99.90;;;;;;4995929;28;20083;-65
2023/07/30 02:43:51;;;;;;;14.80;4.35;;;14.40;99.90;;;;;;4995678;28;20037;-64
2023/07/30 02:46:16;;;;;;;11.93;4.15;;;14.30;99.90;;;;;;4996266;28;20124;-64
2023/07/30 02:48:42;;;;;;;12.65;3.92;;;14.30;99.90;;;;;;4979604;28;20050;-63
2023/07/30 02:51:08;;;;;;;10.27;4.32;;;14.30;99.90;;;;;;4995745;28;20154;-64
2023/07/30 02:53:33;;;;;;;11.05;4.05;;;14.30;99.90;;;;;;4995812;28;20046;-63
2023/07/30 02:56:12;;;;;;;12.38;4.32;;;14.30;99.90;;;;;;4995535;28;20041;-64
2023/07/30 02:58:40;;;;;;;11.73;4.30;;;14.30;99.90;;;;;;4995599;28;20045;-66
2023/07/30 03:01:22;;;;;;;13.68;4.20;;;14.30;99.90;;;;;;4947795;28;20047;-64
2023/07/30 03:03:48;;;;;;;12.20;4.05;;;14.30;99.90;;;;;;4995475;28;20068;-63
2023/07/30 03:06:16;;;;;;;13.57;4.22;;;14.30;99.90;;;;;;4995649;28;20038;-64
2023/07/30 03:08:45;;;;;;;12.82;4.80;;;14.30;99.90;;;;;;4979481;28;20038;-64
2023/07/30 03:11:18;;;;;;;15.30;4.25;;;14.40;99.90;;;;;;4979472;28;20045;-64
2023/07/30 03:13:43;;;;;;;13.05;4.18;;;14.40;99.90;;;;;;4982968;28;20045;-64
2023/07/30 03:16:09;;;;;;;12.68;4.40;;;14.30;99.90;;;;;;5017000;28;20544;-64
2023/07/30 03:18:38;;;;;;;11.65;4.10;;;14.40;99.90;;;;;;4983473;28;20116;-64
2023/07/30 03:21:04;;;;;;;12.32;4.32;;;14.30;99.90;;;;;;4982892;28;20458;-63
2023/07/30 03:23:31;;;;;;;14.05;4.60;;;14.30;99.90;;;;;;4998739;28;20049;-63
2023/07/30 03:25:58;;;;;;;13.90;4.10;;;14.30;99.90;;;;;;4982896;28;20053;-64
2023/07/30 03:28:24;;;;;;;14.48;4.00;;;14.20;99.90;;;;;;4982937;28;20049;-64
2023/07/30 03:30:50;;;;;;;12.75;4.28;;;14.20;99.90;;;;;;4982605;28;20050;-63
2023/07/30 03:33:16;;;;;;;10.68;4.15;;;14.20;99.90;;;;;;4999248;28;20038;-64
2023/07/30 03:35:42;;;;;;;11.98;4.30;;;14.20;99.90;;;;;;4998877;28;20068;-65
2023/07/30 03:38:08;;;;;;;14.52;4.63;;;14.20;99.90;;;;;;4999232;28;20073;-63
2023/07/30 03:40:33;;;;;;;15.95;4.45;;;14.20;99.90;;;;;;4999004;28;20132;-64
2023/07/30 03:42:59;;;;;;;12.88;4.40;;;14.20;99.90;;;;;;4998757;28;20127;-64
2023/07/30 03:45:25;;;;;;;13.07;4.70;;;14.20;99.90;;;;;;4998583;28;20041;-64
2023/07/30 03:47:51;;;;;;;12.40;4.20;;;14.10;99.90;;;;;;4998567;28;20104;-64
2023/07/30 03:50:16;;;;;;;15.70;4.90;;;14.20;99.90;;;;;;5016319;28;20053;-63
2023/07/30 03:52:42;;;;;;;13.90;4.63;;;14.20;99.90;;;;;;4998743;28;20073;-64
2023/07/30 03:55:08;;;;;;;12.10;4.70;;;14.20;99.90;;;;;;4998490;28;20092;-64
2023/07/30 03:57:34;;;;;;;11.80;4.80;;;14.20;99.90;;;;;;4998569;28;20108;-64
2023/07/30 04:00:00;;;;;;;11.05;5.18;;;14.20;99.90;;;;;;4998770;28;20069;-63
2023/07/30 04:02:34;;;;;;;12.30;4.90;;;14.20;99.90;;;;;;4982557;28;20034;-64
2023/07/30 04:05:04;;;;;;;14.60;5.28;;;14.20;99.90;;;;;;4998889;28;20045;-64
2023/07/30 04:07:44;;;;;;;12.77;5.05;;;14.20;99.90;;;;;;4982757;28;20042;-63
2023/07/30 04:10:10;;;;;;;14.77;5.55;;;14.20;99.90;;;;;;4998466;28;20033;-64
2023/07/30 04:12:36;;;;;;;11.52;5.45;;;14.20;99.90;;;;;;4998353;28;20033;-64
2023/07/30 04:15:02;;;;;;;13.85;5.55;;;14.20;99.90;;;;;;4982203;28;20046;-64
2023/07/30 04:17:28;;;;;;;11.82;5.45;;;14.20;99.90;;;;;;5015646;28;20500;-64
2023/07/30 04:19:54;;;;;;;13.25;5.68;;;14.20;99.90;;;;;;4981779;28;20050;-64
2023/07/30 04:22:33;;;;;;;14.13;6.03;;;14.20;99.90;;;;;;4997920;28;20042;-62
2023/07/30 04:25:10;;;;;;;17.20;6.30;;;14.30;99.90;;;;;;4997351;28;20050;-64
2023/07/30 04:27:40;;;;;;;15.15;5.78;;;14.30;99.90;;;;;;4998259;28;20046;-64
2023/07/30 04:30:06;;;;;;;16.17;5.90;;;14.30;99.90;;;;;;4982127;28;20071;-63
2023/07/30 04:32:38;;;;;;;14.48;6.00;;;14.30;99.90;;;;;;4997745;28;20125;-64
2023/07/30 04:35:04;;;;;;;16.73;6.00;;;14.30;99.90;;;;;;4998213;28;20489;-63
2023/07/30 04:37:30;;;;;;;15.07;6.80;;;14.40;99.90;;;;;;4997969;28;20049;-71
2023/07/30 04:39:56;;;;;;;14.15;5.95;;;14.40;99.90;;;;;;5015119;28;20082;-71
2023/07/30 04:42:22;;;;;;;15.30;6.00;;;14.40;99.90;;;;;;4997677;28;20125;-70
2023/07/30 04:44:48;;;;;;;18.15;6.43;;;14.40;99.90;;;;;;4981794;28;20485;-70
2023/07/30 04:47:14;;;;;;;13.27;5.93;;;14.40;99.90;;;;;;4981447;28;20038;-71
2023/07/30 04:49:40;;;;;;;12.70;5.65;;;14.40;99.90;;;;;;4997492;28;20134;-71
2023/07/30 04:52:07;;;;;;;16.38;6.50;;;14.50;99.90;;;;;;4981560;28;20049;-70
2023/07/30 04:54:36;;;;;;;18.23;6.35;;;14.50;99.90;;;;;;4997282;28;20172;-71
2023/07/30 04:57:11;;;;;;;17.33;6.45;;;14.60;99.90;;;;;;4965461;28;20089;-71
2023/07/30 04:59:37;;;;;;;17.92;6.50;;;14.60;99.90;;;;;;5014729;28;20045;-71
2023/07/30 05:02:03;;;;;;;15.40;6.43;;;14.60;99.90;;;;;;4997585;28;20056;-70
2023/07/30 05:04:29;;;;;;;16.83;6.75;;;14.70;99.90;;;;;;4981408;28;20042;-71
2023/07/30 05:06:55;;;;;;;17.45;6.45;;;14.70;99.90;;;;;;5014716;28;20037;-71
2023/07/30 05:09:21;;;;;;;19.55;6.65;;;14.80;99.90;;;;;;5014619;28;20048;-71
2023/07/30 05:12:05;;;;;;;20.77;7.20;;;14.80;99.90;;;;;;4997288;28;20046;-72
2023/07/30 05:14:31;;;;;;;17.05;6.18;;;14.80;99.90;;;;;;4983305;28;20050;-69
2023/07/30 05:16:57;;;;;;;17.25;6.70;;;14.90;99.90;;;;;;4997093;28;20132;-71
2023/07/30 05:19:22;;;;;;;15.13;6.20;;;14.90;99.90;;;;;;4996889;28;20096;-71
2023/07/30 05:21:59;;;;;;;20.48;7.10;;;15.00;99.90;;;;;;4996900;28;20512;-71
2023/07/30 05:24:32;;;;;;;20.38;7.05;;;15.00;99.90;;;;;;4997565;28;20052;-71
2023/07/30 05:27:02;;;;;;;17.35;5.97;;;15.10;99.90;;;;;;4965655;28;20519;-71
2023/07/30 05:29:27;;;;;;;15.43;5.57;;;15.20;99.90;;;;;;4997196;28;20041;-70
2023/07/30 05:31:59;;;;;;;19.33;6.78;;;15.20;99.90;;;;;;4997824;28;20095;-71
2023/07/30 05:34:28;;;;;;;20.15;6.82;;;15.30;99.90;;;;;;5015077;28;20092;-72
2023/07/30 05:36:53;;;;;;;20.27;6.80;;;15.40;99.90;;;;;;4997256;28;20046;-71
2023/07/30 05:39:20;;;;;;;17.23;6.55;;;15.40;99.90;;;;;;4997449;28;20042;-71
2023/07/30 05:41:49;;;;;;;17.38;6.70;;;15.40;99.90;;;;;;4982412;28;20034;-71
2023/07/30 05:44:14;;;;;;;18.00;6.22;;;15.50;99.90;;;;;;4981763;28;20038;-70
2023/07/30 05:46:55;;;;;;;20.98;7.32;;;15.50;99.90;;;;;;5018356;28;20045;-72
2023/07/30 05:49:30;;;;;;;18.08;6.72;;;15.60;99.90;;;;;;4989097;28;20053;-71
2023/07/30 05:51:56;;;;;;;18.88;6.40;;;15.70;99.90;;;;;;5000822;28;20477;-70
2023/07/30 05:54:22;;;;;;;17.85;6.85;;;15.70;99.90;;;;;;4984536;28;20053;-71
2023/07/30 05:56:48;;;;;;;20.00;7.25;;;15.70;99.90;;;;;;4998290;28;20041;-73
2023/07/30 05:59:14;;;;;;;19.08;6.50;;;15.70;99.90;;;;;;5015892;28;20453;-73
2023/07/30 06:01:40;;;;;;;15.70;6.07;;;15.70;99.90;;;;;;4998403;28;20049;-73
2023/07/30 06:04:05;;;;;;;19.05;6.28;;;15.70;99.90;;;;;;4997506;28;20037;-73
2023/07/30 06:06:31;;;;;;;19.15;6.93;;;15.80;99.90;;;;;;4981274;28;20041;-73
2023/07/30 06:08:57;;;;;;;18.55;6.57;;;15.90;99.90;;;;;;4997248;28;20057;-72
2023/07/30 06:11:25;;;;;;;20.17;6.80;;;15.90;99.90;;;;;;4997529;28;20061;-73
2023/07/30 06:13:51;;;;;;;17.38;6.60;;;16.00;99.90;;;;;;4997197;28;20049;-71
2023/07/30 06:16:19;;;;;;;21.08;7.30;;;16.00;99.90;;;;;;4980403;28;20409;-73
2023/07/30 06:18:46;;;;;;;17.52;6.63;;;16.10;99.90;;;;;;4996072;28;20072;-73
2023/07/30 06:21:12;;;;;;;19.85;6.50;;;16.10;99.90;;;;;;4980652;28;20045;-71
2023/07/30 06:23:40;;;;;;;18.42;6.50;;;16.30;99.90;;;;;;4980601;28;20580;-73
2023/07/30 06:26:07;;;;;;;17.27;6.85;;;16.30;99.90;;;;;;4964095;28;20054;-72
2023/07/30 06:28:33;;;;;;;23.13;7.65;;;16.40;99.90;;;;;;4980276;28;20033;-73
2023/07/30 06:31:02;;;;;;;19.35;7.10;;;16.50;99.90;;;;;;4996630;28;20127;-72
2023/07/30 06:33:28;;;;;;;23.45;6.80;;;16.50;99.90;;;;;;4979799;28;20046;-73
2023/07/30 06:35:54;;;;;;;20.15;7.32;;;16.60;99.90;;;;;;4982171;28;20068;-72
2023/07/30 06:38:20;;;;;;;19.92;6.65;;;16.70;99.90;;;;;;5000576;28;20038;-70
2023/07/30 06:40:46;;;;;;;19.02;6.13;;;16.80;99.90;;;;;;4984137;28;20038;-71
2023/07/30 06:43:12;;;;;;;18.48;6.80;;;16.90;99.90;;;;;;5017908;28;20045;-71
2023/07/30 06:45:37;;;;;;;20.27;6.80;;;16.90;99.90;;;;;;4986652;28;20110;-71
2023/07/30 06:48:03;;;;;;;19.30;6.78;;;17.00;99.90;;;;;;5002677;28;20100;-72
2023/07/30 06:50:29;;;;;;;23.20;7.20;;;17.10;99.90;;;;;;4988413;28;20041;-72
2023/07/30 06:52:54;;;;;;;20.08;6.97;;;17.10;99.90;;;;;;5020072;28;20204;-72
2023/07/30 06:55:20;;;;;;;20.23;6.78;;;17.10;99.90;;;;;;5017935;28;20390;-72
2023/07/30 06:57:46;;;;;;;25.13;7.40;;;17.10;99.90;;;;;;4999823;28;20125;-72
2023/07/30 07:00:21;;;;;;;23.40;7.32;;;17.10;99.90;;;;;;4983670;28;20393;-72
2023/07/30 07:02:53;;;;;;;21.67;6.82;;;17.20;99.90;;;;;;4968142;28;20041;-72
2023/07/30 07:05:19;;;;;;;24.52;7.10;;;17.20;99.90;;;;;;4999768;28;20073;-71
2023/07/30 07:07:45;;;;;;;19.90;6.82;;;17.30;99.90;;;;;;4983260;28;20037;-71
2023/07/30 07:10:11;;;;;;;17.67;6.75;;;17.40;99.90;;;;;;4999592;28;20137;-71
2023/07/30 07:12:38;;;;;;;21.00;7.05;;;17.60;99.90;;;;;;4999455;28;20038;-71
2023/07/30 07:15:08;;;;;;;17.50;6.50;;;17.70;99.90;;;;;;5017275;28;20046;-72
2023/07/30 07:17:35;;;;;;;20.23;6.72;;;17.80;99.90;;;;;;4984031;28;20532;-71
2023/07/30 07:20:01;;;;;;;20.95;6.70;;;17.80;99.90;;;;;;4999262;28;20128;-71
2023/07/30 07:22:26;;;;;;;21.83;6.47;;;17.90;99.90;;;;;;4983045;28;20038;-71
2023/07/30 07:24:56;;;;;;;20.88;6.95;;;18.00;99.90;;;;;;4982909;28;20052;-73
2023/07/30 07:27:28;;;;;;;20.73;6.60;;;18.00;99.90;;;;;;5016607;28;20048;-71
2023/07/30 07:29:57;;;;;;;;;;;18.00;99.90;;;;;;4999531;28;20129;-71
2023/07/30 07:32:23;;;;;;;19.98;6.20;;;18.10;99.90;;;;;;4982827;28;20020;-71
2023/07/30 07:34:49;;;;;;;20.55;5.88;;;18.10;99.90;;;;;;4999106;28;20136;-71
2023/07/30 07:37:18;;;;;;;20.23;5.93;;;18.20;99.90;;;;;;5016594;28;20375;-71
2023/07/30 07:39:44;;;;;;;17.58;5.65;;;18.30;99.90;;;;;;4998898;28;20054;-71
2023/07/30 07:42:10;;;;;;;17.35;5.30;;;18.30;99.90;;;;;;4983031;28;20155;-73
2023/07/30 07:44:36;;;;;;;17.98;5.70;;;18.30;99.90;;;;;;4999124;28;20069;-71
2023/07/30 07:47:03;;;;;;;18.85;5.72;;;18.30;99.90;;;;;;5016707;28;20095;-72
2023/07/30 07:49:29;;;;;;;21.17;6.45;;;18.20;99.90;;;;;;4998824;28;20049;-71
2023/07/30 07:51:55;;;;;;;17.38;5.70;;;18.20;99.90;;;;;;4998852;28;20057;-72
2023/07/30 07:54:20;;;;;;;19.63;6.10;;;18.30;99.90;;;;;;4982727;28;20038;-72
2023/07/30 07:56:46;;;;;;;21.55;5.97;;;18.50;99.90;;;;;;4982669;28;20112;-71
2023/07/30 07:59:18;;;;;;;17.70;6.00;;;18.90;99.90;;;;;;4965696;28;20045;-71
2023/07/30 08:01:44;;;;;;;16.75;5.45;;;19.40;99.90;;;;;;4998825;28;20108;-71
2023/07/30 08:04:10;;;;;;;16.30;5.35;;;19.80;99.90;;;;;;4966325;28;20041;-71
2023/07/30 08:06:36;;;;;;;17.98;5.68;;;20.00;99.90;;;;;;4982350;28;20034;-71
2023/07/30 08:09:02;;;;;;;15.25;5.22;;;20.00;99.90;;;;;;4998658;28;20054;-71
2023/07/30 08:11:28;;;;;;;19.17;5.30;;;20.10;99.90;;;;;;4982091;28;20572;-72
2023/07/30 08:13:53;;;;;;;19.00;5.50;;;20.30;99.90;;;;;;5015852;28;20052;-72
2023/07/30 08:16:19;;;;;;;13.73;5.18;;;20.60;99.90;;;;;;4981907;28;20049;-70
2023/07/30 08:18:45;;;;;;;15.63;5.28;;;20.80;99.90;;;;;;4998075;28;20100;-73
2023/07/30 08:21:11;;;;;;;17.00;5.18;;;20.80;99.90;;;;;;4966124;28;20065;-71
2023/07/30 08:23:37;;;;;;;15.65;5.00;;;20.80;99.90;;;;;;4998176;28;20486;-72
2023/07/30 08:26:02;;;;;;;16.40;5.25;;;20.80;99.90;;;;;;4965532;28;20521;-71
2023/07/30 08:28:28;;;;;;;16.13;4.75;;;20.80;99.90;;;;;;4998062;28;20046;-72
2023/07/30 08:31:01;;;;;;;16.17;4.78;;;21.10;99.90;;;;;;4997999;28;20037;-72
2023/07/30 08:33:27;;;;;;;14.18;4.28;;;21.40;99.90;;;;;;4997983;28;20042;-71
2023/07/30 08:35:58;;;;;;;15.05;4.40;;;21.40;99.90;;;;;;4998262;28;20056;-73
2023/07/30 08:38:24;;;;;;;18.25;4.38;;;21.10;99.90;;;;;;4981652;28;20132;-72
2023/07/30 08:40:50;;;;;;;11.82;3.80;;;21.30;99.90;;;;;;4997732;28;20038;-72
2023/07/30 08:43:19;;;;;;;15.13;4.20;;;21.30;99.90;;;;;;4997922;28;20042;-72
2023/07/30 08:45:48;;;;;;;14.10;3.80;;;21.50;99.90;;;;;;4966269;28;20490;-72
2023/07/30 08:48:14;;;;;;;16.55;3.70;;;21.60;99.90;;;;;;4998046;28;20103;-72
2023/07/30 08:50:41;;;;;;;15.52;4.03;;;21.60;99.90;;;;;;4997515;28;20041;-72
2023/07/30 08:53:11;;;;;;;14.30;3.70;;;21.50;99.90;;;;;;4997766;28;20050;-73
2023/07/30 08:55:39;;;;;;;15.82;4.28;;;21.20;99.90;;;;;;4997798;28;20125;-71
2023/07/30 08:58:06;;;;;;;15.30;4.30;;;21.20;99.90;;;;;;5015203;28;20096;-73
2023/07/30 09:00:38;;;;;;;11.75;3.60;;;21.10;99.90;;;;;;4997769;28;20050;-71
2023/07/30 09:03:05;;;;;;;13.00;3.40;;;21.20;99.90;;;;;;4997344;28;20042;-74
2023/07/30 09:05:34;;;;;;;12.75;3.30;;;21.50;99.90;;;;;;4997414;28;20096;-73
2023/07/30 09:07:59;;;;;;;13.73;3.50;;;21.60;99.90;;;;;;4997412;28;20048;-71
2023/07/30 09:10:31;;;;;;;11.30;3.30;;;21.60;99.90;;;;;;4964853;28;20038;-71
2023/07/30 09:12:58;;;;;;;14.90;3.75;;;21.60;99.90;;;;;;4965365;28;20133;-72
2023/07/30 09:15:38;;;;;;;14.57;3.90;;;21.50;99.90;;;;;;4997473;28;20429;-72
2023/07/30 09:18:10;;;;;;;13.50;4.13;;;21.30;99.90;;;;;;4997103;28;20056;-64
2023/07/30 09:20:41;;;;;;;15.30;4.40;;;20.90;99.90;;;;;;4981262;28;20034;-64
2023/07/30 09:23:08;;;;;;;15.18;4.35;;;20.70;99.90;;;;;;4997137;28;20061;-64
2023/07/30 09:25:38;;;;;;;16.60;4.78;;;20.60;99.90;;;;;;4996867;28;20079;-65
2023/07/30 09:28:11;;;;;;;12.02;4.40;;;20.60;99.90;;;;;;4981224;28;20048;-64
2023/07/30 09:30:42;;;;;;;15.48;4.43;;;20.50;99.90;;;;;;4996496;28;20056;-64
2023/07/30 09:33:08;;;;;;;15.82;4.68;;;20.40;99.90;;;;;;4997690;28;20046;-64
2023/07/30 09:35:39;;;;;;;16.55;4.75;;;20.40;99.90;;;;;;5014195;28;20053;-64
2023/07/30 09:38:05;;;;;;;14.75;4.40;;;20.30;99.90;;;;;;4980679;28;20491;-63
2023/07/30 09:40:35;;;;;;;14.25;4.07;;;20.30;99.90;;;;;;4996943;28;20041;-65
2023/07/30 09:43:04;;;;;;;11.70;3.60;;;20.20;99.90;;;;;;4996753;28;20512;-64
2023/07/30 09:45:35;;;;;;;14.27;3.78;;;20.30;99.90;;;;;;4996576;28;20045;-64
2023/07/30 09:48:03;;;;;;;11.70;4.20;;;20.20;99.90;;;;;;4996608;28;20521;-64
2023/07/30 09:50:29;;;;;;;12.52;3.92;;;20.00;99.90;;;;;;4980494;28;20513;-65
2023/07/30 09:52:58;;;;;;;14.18;4.30;;;19.90;99.90;;;;;;4996796;28;20393;-64
2023/07/30 09:55:24;;;;;;;15.68;4.10;;;19.90;99.90;;;;;;4996393;28;20053;-63
2023/07/30 09:57:50;;;;;;;11.38;3.78;;;19.80;99.90;;;;;;4980027;28;20045;-64
2023/07/30 10:00:16;;;;;;;11.30;3.42;;;19.70;99.90;;;;;;4980265;28;20378;-64
2023/07/30 10:02:50;;;;;;;12.23;3.90;;;19.60;99.90;;;;;;4996254;28;20046;-64
2023/07/30 10:05:24;;;;;;;13.48;3.53;;;19.40;99.90;;;;;;4980321;28;20038;-65
2023/07/30 10:08:10;;;;;;;11.70;3.22;;;19.30;99.90;;;;;;5013721;28;20108;-64
2023/07/30 10:10:36;;;;;;;13.35;3.92;;;19.10;99.90;;;;;;4996057;28;20041;-63
2023/07/30 10:13:06;;;;;;;10.18;2.78;;;18.90;99.90;;;;;;4996324;28;20038;-64
2023/07/30 10:15:37;;;;;;;8.60;2.47;;;18.60;99.90;;;;;;4996065;28;20038;-65
2023/07/30 10:18:03;;;;;;;11.33;2.73;;;18.20;99.90;;;;;;4995992;28;20387;-65
2023/07/30 10:20:30;;;;;;;9.15;2.55;;;17.90;99.90;;;;;;4996202;28;20374;-65
2023/07/30 10:23:00;;;;;;;9.43;2.47;;;17.60;99.90;;;;;;4995561;28;20042;-65
2023/07/30 10:25:31;;;;;;;6.55;2.10;;;17.40;99.90;;;;;;4995686;28;20042;-65
2023/07/30 10:27:58;;;;;;;8.77;2.38;;;17.00;99.90;;;;;;4996312;28;20045;-72
2023/07/30 10:30:31;;;;;;;8.98;2.30;;;16.70;99.90;;;;;;4996189;28;20134;-65
2023/07/30 10:32:58;;;;;;;8.45;2.47;;;16.70;99.90;;;;;;4995853;28;20049;-65
2023/07/30 10:35:48;;;;;;;8.60;2.30;;;16.60;99.90;;;;;;4995782;28;20046;-64
2023/07/30 10:38:28;;;;;;;10.52;2.42;;;16.70;99.90;;;;;;4979844;28;20042;-66
2023/07/30 10:41:06;;;;;;;10.05;2.50;;;16.70;99.90;;;;;;4995907;28;20533;-65
2023/07/30 10:43:41;;;;;;;10.02;2.55;;;16.80;99.90;;;;;;4995993;28;20041;-65
2023/07/30 10:46:12;;;;;;;11.65;2.90;;;16.90;99.90;;;;;;4995696;28;20042;-65
2023/07/30 10:48:43;;;;;;;11.07;2.90;;;16.80;99.90;;;;;;4995945;28;20104;-66
2023/07/30 10:51:15;;;;;;;10.60;2.92;;;16.80;99.90;;;;;;4995560;28;20053;-65
2023/07/30 10:53:48;;;;;;;10.55;3.10;;;16.90;99.90;;;;;;4995665;28;20042;-65
2023/07/30 10:56:20;;;;;;;10.15;3.08;;;16.90;99.90;;;;;;4995816;28;20482;-65
2023/07/30 10:58:53;;;;;;;10.50;2.95;;;16.90;99.90;;;;;;4995364;28;20057;-65
2023/07/30 11:01:40;;;;;;;8.93;2.80;;;16.90;99.90;;;;;;4995605;28;20038;-64
2023/07/30 11:04:17;;;;;;;8.25;2.65;;;17.00;99.90;;;;;;5013094;28;20175;-65
2023/07/30 11:06:48;;;;;;;10.63;2.70;;;17.20;99.90;;;;;;4995524;28;20041;-64
2023/07/30 11:09:21;;;;;;;9.88;2.90;;;17.20;99.90;;;;;;4979489;28;20042;-64
2023/07/30 11:11:51;;;;;;;10.32;3.00;;;17.60;99.90;;;;;;4995301;28;20046;-65
2023/07/30 11:14:22;;;;;;;8.77;2.70;;;18.00;99.90;;;;;;4995854;28;20093;-65
2023/07/30 11:16:58;;;;;;;8.23;2.83;;;18.50;99.90;;;;;;4995416;28;20045;-65
2023/07/30 11:19:25;;;;;;;10.85;2.90;;;19.00;99.90;;;;;;4995395;28;20048;-65
2023/07/30 11:21:53;;;;;;;11.25;3.10;;;19.30;99.90;;;;;;4995717;28;20038;-65
2023/07/30 11:24:20;;;;;;;11.82;3.63;;;19.70;99.90;;;;;;4979394;28;20078;-65
2023/07/30 11:27:11;;;;;;;10.30;3.08;;;19.90;99.90;;;;;;5011627;28;20068;-65
2023/07/30 11:29:36;;;;;;;12.43;3.28;;;20.20;99.90;;;;;;4995645;28;20050;-65
2023/07/30 11:32:02;;;;;;;10.80;3.25;;;20.40;99.90;;;;;;4995264;28;20125;-66
2023/07/30 11:34:29;;;;;;;11.95;3.40;;;20.70;99.90;;;;;;4997379;28;20477;-66
2023/07/30 11:36:56;;;;;;;10.70;3.05;;;20.80;99.90;;;;;;4983804;28;20128;-74
2023/07/30 11:39:23;;;;;;;11.02;2.80;;;20.60;99.90;;;;;;4983857;28;20057;-72
2023/07/30 11:41:49;;;;;;;8.63;2.42;;;20.50;99.90;;;;;;5000465;28;20386;-73
2023/07/30 11:44:32;;;;;;;9.95;2.63;;;20.50;99.90;;;;;;5000346;28;20045;-72
2023/07/30 11:46:57;;;;;;;13.88;2.85;;;20.50;99.90;;;;;;5000601;28;20378;-72
2023/07/30 11:49:32;;;;;;;10.02;2.40;;;20.40;99.90;;;;;;5017986;28;20052;-71
2023/07/30 11:52:14;;;;;;;11.23;2.67;;;20.50;99.90;;;;;;5000926;28;20041;-72
2023/07/30 11:54:39;;;;;;;9.70;2.58;;;20.40;99.90;;;;;;5000340;28;20425;-73
2023/07/30 11:57:14;;;;;;;12.63;2.60;;;20.30;99.90;;;;;;4984192;28;20099;-71
2023/07/30 11:59:42;;;;;;;10.18;2.40;;;20.40;99.90;;;;;;4985124;28;20038;-71
2023/07/30 12:02:07;;;;;;;10.70;2.53;;;20.60;99.90;;;;;;4999780;28;20050;-72
2023/07/30 12:04:46;;;;;;;9.52;2.42;;;20.90;99.90;;;;;;4984412;28;20145;-74
2023/07/30 12:07:24;;;;;;;9.10;2.33;;;21.00;99.90;;;;;;5000685;28;20041;-73
2023/07/30 12:10:13;;;;;;;6.50;1.85;;;21.10;99.90;;;;;;5016872;28;20045;-72
2023/07/30 12:12:46;;;;;;;9.15;2.10;;;21.20;99.90;;;;;;4987626;28;20060;-73
2023/07/30 12:15:12;;;;;;;9.65;2.15;;;21.40;99.90;;;;;;4983289;28;20084;-72
2023/07/30 12:17:39;;;;;;;11.77;2.13;;;21.50;99.90;;;;;;4999765;28;20464;-72
2023/07/30 12:20:06;;;;;;;7.85;1.98;;;21.50;99.90;;;;;;4983617;28;20046;-72
2023/07/30 12:22:42;;;;;;;9.30;2.10;;;21.50;99.90;;;;;;4999997;28;20160;-72
2023/07/30 12:25:09;;;;;;;8.73;2.20;;;21.40;99.90;;;;;;4983252;28;20126;-72
2023/07/30 12:28:13;;;;;;;9.07;2.15;;;21.30;99.90;;;;;;4990381;28;20096;-71
2023/07/30 12:30:39;;;;;;;8.75;2.10;;;21.10;99.90;;;;;;4998785;28;20524;-73
2023/07/30 12:33:18;;;;;;;9.77;2.25;;;21.30;99.90;;;;;;4982357;28;20046;-72
2023/07/30 12:35:44;;;;;;;7.43;1.80;;;21.40;99.90;;;;;;5016624;28;20428;-72
2023/07/30 12:38:10;;;;;;;10.10;2.03;;;21.30;99.90;;;;;;4982874;28;20117;-71
2023/07/30 12:40:42;;;;;;;8.25;1.95;;;21.50;99.90;;;;;;4998801;28;20101;-72
2023/07/30 12:43:09;;;;;;;11.65;2.30;;;21.60;99.90;;;;;;4967151;28;20045;-72
2023/07/30 12:45:58;;;;;;;9.40;2.20;;;21.70;99.90;;;;;;4998148;28;20115;-74
2023/07/30 12:48:23;;;;;;;12.02;2.20;;;21.60;99.90;;;;;;5016296;28;20049;-73